Cape Henlopen — WM5958 — position and weather

sailwx.info

Track history (hours):
 
Tides and Currents Weather Stations Pressure Air Temp Water Temp Dewpoint Dewpoint Depression Visibility Wind Speed Wind Dir Waves Ship Positions

Cape Henlopen

Owner: CROSS SOUND FERRY SERV INC, NEW LONDON, CT. More information available from US FCC via Universal Licensing System and Coast Guard Vessel Documentation Center.

Last reported at 2018-Aug-15 01:17 UTC. Time now 2018-Aug-15 03:00 UTC.
Position N 41°09' W 072°13'.

Length 94 m; draft 2.7 m.

Type: Passenger vessel. MMSI: 367354360.

Date/timePositionNaut miles runAvg speedWind from/ knotsBaromVisibWave heightAir tempDewpointWater temp
2018-Aug-15 01:17N 41°09' W 072°13'4 9.7
2018-Aug-15 00:49N 41°13' W 072°10'3 1.6
2018-Aug-14 22:48N 41°15' W 072°07'514.2
2018-Aug-14 22:28N 41°12' W 072°12'2 1.8
2018-Aug-14 21:21N 41°11' W 072°14'4 8.9
2018-Aug-14 20:53N 41°14' W 072°10'4 2.3
2018-Aug-14 19:04N 41°17' W 072°06'212.6
2018-Aug-14 18:55N 41°15' W 072°08'512.7
2018-Aug-14 18:30N 41°12' W 072°12'1 1.1
2018-Aug-14 17:23N 41°11' W 072°13'8 3.5
2018-Aug-14 15:05N 41°17' W 072°07'310.6
2018-Aug-14 14:46N 41°14' W 072°09'310.2
2018-Aug-14 14:30N 41°12' W 072°12'1 0.5
2018-Aug-14 13:05N 41°12' W 072°13'3 0.2
2018-Aug-13 16:43N 41°14' W 072°10'210.5
2018-Aug-13 16:29N 41°12' W 072°12'1 0.6
2018-Aug-13 15:05N 41°12' W 072°13'214.2
2018-Aug-13 14:56N 41°13' W 072°11'3 1.6
2018-Aug-13 12:56N 41°15' W 072°07'510.5
2018-Aug-13 12:29N 41°12' W 072°12'2 0.2
2018-Aug-13 03:04N 41°10' W 072°13'1 9.4
2018-Aug-13 02:57N 41°11' W 072°14'8 4.4
2018-Aug-13 01:03N 41°17' W 072°06'210.7
2018-Aug-13 00:55N 41°15' W 072°07'510.6
2018-Aug-13 00:28N 41°12' W 072°12'3 2.5
2018-Aug-12 23:22N 41°10' W 072°13'410.0
2018-Aug-12 22:59N 41°13' W 072°11'5 2.8
2018-Aug-12 21:06N 41°17' W 072°06'112.2
2018-Aug-12 20:59N 41°16' W 072°07'714.0
2018-Aug-12 20:30N 41°11' W 072°13'0 0.4
2018-Aug-12 19:21N 41°10' W 072°13'4 9.1
2018-Aug-12 18:58N 41°13' W 072°10'5 2.3
2018-Aug-12 17:00N 41°17' W 072°06'612.0
2018-Aug-12 16:30N 41°12' W 072°12'7 2.3
2018-Aug-12 13:12N 41°18' W 072°05'310.7
2018-Aug-12 12:55N 41°15' W 072°08'410.2
2018-Aug-12 12:29N 41°12' W 072°12'3 0.2
2018-Aug-12 01:18N 41°10' W 072°13'411.2
2018-Aug-12 00:57N 41°13' W 072°11'2 0.8
2018-Aug-11 22:42N 41°14' W 072°09'312.4
2018-Aug-11 22:30N 41°12' W 072°11'3 3.0
2018-Aug-11 21:34N 41°10' W 072°13'111.0
2018-Aug-11 21:30N 41°10' W 072°13'8 3.5
2018-Aug-11 19:07N 41°17' W 072°06'212.4
2018-Aug-11 18:58N 41°15' W 072°07'7 4.9
2018-Aug-11 17:30N 41°10' W 072°13'5 8.8
2018-Aug-11 16:58N 41°14' W 072°10'4 2.0
2018-Aug-11 14:58N 41°16' W 072°06'511.2
2018-Aug-11 14:29N 41°12' W 072°11'3 1.9
2018-Aug-11 13:08N 41°11' W 072°14'213.1
2018-Aug-11 13:00N 41°12' W 072°13'8 0.8
2018-Aug-11 02:59N 41°18' W 072°05'611.8
2018-Aug-11 02:29N 41°13' W 072°10'5 5.3
2018-Aug-11 01:34N 41°09' W 072°13'1 9.5
2018-Aug-11 01:25N 41°11' W 072°14'10 4.9
2018-Aug-10 23:25N 41°18' W 072°05'511.3
2018-Aug-10 23:00N 41°14' W 072°08'510.8
2018-Aug-10 22:30N 41°10' W 072°13'1 1.7
2018-Aug-10 21:45N 41°09' W 072°14'1 3.9
2018-Aug-10 21:29N 41°10' W 072°13'510.0
2018-Aug-10 21:00N 41°14' W 072°10'4 2.2
2018-Aug-10 19:07N 41°17' W 072°06'112.3
2018-Aug-10 19:00N 41°15' W 072°07'713.4
2018-Aug-10 18:29N 41°10' W 072°13'0 0.3
2018-Aug-10 17:27N 41°11' W 072°13'8 3.3
2018-Aug-10 15:02N 41°16' W 072°06'212.1
2018-Aug-10 14:54N 41°15' W 072°07'512.3
2018-Aug-10 14:30N 41°12' W 072°12'3 2.6
2018-Aug-10 13:21N 41°09' W 072°14'410.0
2018-Aug-10 12:58N 41°13' W 072°12'7 0.6
2018-Aug-10 01:04N 41°17' W 072°06'311.7
2018-Aug-10 00:47N 41°15' W 072°09'310.6
2018-Aug-10 00:30N 41°13' W 072°11'3 2.5
2018-Aug-09 23:14N 41°10' W 072°13'2 9.9
2018-Aug-09 23:00N 41°12' W 072°12'7 3.4
2018-Aug-09 21:00N 41°17' W 072°06'612.0
2018-Aug-09 20:30N 41°12' W 072°11'3 3.0
2018-Aug-09 19:25N 41°09' W 072°13'4 9.6
2018-Aug-09 18:58N 41°13' W 072°11'5 2.7
2018-Aug-09 17:03N 41°17' W 072°05'112.3
2018-Aug-09 16:57N 41°15' W 072°06'7 4.7
2018-Aug-09 15:26N 41°11' W 072°13'4 1.6
2018-Aug-09 12:53N 41°14' W 072°10'4 0.4
2018-Aug-09 01:11N 41°11' W 072°14'4 1.8
2018-Aug-08 22:43N 41°14' W 072°10'210.2
2018-Aug-08 22:30N 41°12' W 072°12'2 1.8
2018-Aug-08 21:09N 41°11' W 072°14'6 0.9
2018-Aug-08 14:47N 41°14' W 072°08'1 0.1
2018-Aug-08 00:48N 41°15' W 072°08'412.7
2018-Aug-08 00:29N 41°12' W 072°12'3 2.3
2018-Aug-07 23:17N 41°10' W 072°13'510.6
2018-Aug-07 22:51N 41°14' W 072°11'1 0.4
2018-Aug-07 20:43N 41°14' W 072°10'211.3
2018-Aug-07 20:30N 41°12' W 072°12'2 1.5
2018-Aug-07 19:13N 41°11' W 072°14'311.5
2018-Aug-07 18:57N 41°13' W 072°11'5 2.8
2018-Aug-07 17:00N 41°17' W 072°06'612.7
2018-Aug-07 16:30N 41°12' W 072°11'3 2.7
2018-Aug-07 15:23N 41°10' W 072°13'4 9.4
2018-Aug-07 14:57N 41°13' W 072°11'4 0.3
2018-Aug-07 01:20N 41°10' W 072°13'9 1.4
2018-Aug-06 19:12N 41°17' W 072°06'211.3
2018-Aug-06 19:00N 41°15' W 072°08'7 4.1
2018-Aug-06 17:24N 41°10' W 072°13'411.0
2018-Aug-06 17:01N 41°13' W 072°11'5 2.3
2018-Aug-06 14:58N 41°16' W 072°06'612.9
2018-Aug-06 14:30N 41°12' W 072°12'2 1.9
2018-Aug-06 13:18N 41°10' W 072°13'4 9.9
2018-Aug-06 12:55N 41°13' W 072°10'1 0.0
2018-Aug-05 22:45N 41°14' W 072°10'4 1.1
2018-Aug-05 19:12N 41°17' W 072°06'211.0
2018-Aug-05 19:00N 41°15' W 072°08'2 0.9
2018-Aug-05 16:58N 41°14' W 072°10'1 0.3
2018-Aug-05 14:42N 41°14' W 072°09'  
Track history (hours):
 
Tides and Currents Weather Stations Pressure Air Temp Water Temp Dewpoint Dewpoint Depression Visibility Wind Speed Wind Dir Waves Ship Positions

Cape Henlopen

Owner: CROSS SOUND FERRY SERV INC, NEW LONDON, CT. More information available from US FCC via Universal Licensing System and Coast Guard Vessel Documentation Center.

Last reported at 2018-Aug-15 01:17 UTC. Time now 2018-Aug-15 03:00 UTC.
Position N 41°09' W 072°13'.

Length 94 m; draft 2.7 m.

Type: Passenger vessel. MMSI: 367354360.

Date/timePositionNaut miles runAvg speedWind from/ knotsBaromVisibWave heightAir tempDewpointWater temp
2018-Aug-15 01:17N 41°09' W 072°13'4 9.7
2018-Aug-15 00:49N 41°13' W 072°10'3 1.6
2018-Aug-14 22:48N 41°15' W 072°07'514.2
2018-Aug-14 22:28N 41°12' W 072°12'2 1.8
2018-Aug-14 21:21N 41°11' W 072°14'4 8.9
2018-Aug-14 20:53N 41°14' W 072°10'4 2.3
2018-Aug-14 19:04N 41°17' W 072°06'212.6
2018-Aug-14 18:55N 41°15' W 072°08'512.7
2018-Aug-14 18:30N 41°12' W 072°12'1 1.1
2018-Aug-14 17:23N 41°11' W 072°13'8 3.5
2018-Aug-14 15:05N 41°17' W 072°07'310.6
2018-Aug-14 14:46N 41°14' W 072°09'310.2
2018-Aug-14 14:30N 41°12' W 072°12'1 0.5
2018-Aug-14 13:05N 41°12' W 072°13'3 0.2
2018-Aug-13 16:43N 41°14' W 072°10'210.5
2018-Aug-13 16:29N 41°12' W 072°12'1 0.6
2018-Aug-13 15:05N 41°12' W 072°13'214.2
2018-Aug-13 14:56N 41°13' W 072°11'3 1.6
2018-Aug-13 12:56N 41°15' W 072°07'510.5
2018-Aug-13 12:29N 41°12' W 072°12'2 0.2
2018-Aug-13 03:04N 41°10' W 072°13'1 9.4
2018-Aug-13 02:57N 41°11' W 072°14'8 4.4
2018-Aug-13 01:03N 41°17' W 072°06'210.7
2018-Aug-13 00:55N 41°15' W 072°07'510.6
2018-Aug-13 00:28N 41°12' W 072°12'3 2.5
2018-Aug-12 23:22N 41°10' W 072°13'410.0
2018-Aug-12 22:59N 41°13' W 072°11'5 2.8
2018-Aug-12 21:06N 41°17' W 072°06'112.2
2018-Aug-12 20:59N 41°16' W 072°07'714.0
2018-Aug-12 20:30N 41°11' W 072°13'0 0.4
2018-Aug-12 19:21N 41°10' W 072°13'4 9.1
2018-Aug-12 18:58N 41°13' W 072°10'5 2.3
2018-Aug-12 17:00N 41°17' W 072°06'612.0
2018-Aug-12 16:30N 41°12' W 072°12'7 2.3
2018-Aug-12 13:12N 41°18' W 072°05'310.7
2018-Aug-12 12:55N 41°15' W 072°08'410.2
2018-Aug-12 12:29N 41°12' W 072°12'3 0.2
2018-Aug-12 01:18N 41°10' W 072°13'411.2
2018-Aug-12 00:57N 41°13' W 072°11'2 0.8
2018-Aug-11 22:42N 41°14' W 072°09'312.4
2018-Aug-11 22:30N 41°12' W 072°11'3 3.0
2018-Aug-11 21:34N 41°10' W 072°13'111.0
2018-Aug-11 21:30N 41°10' W 072°13'8 3.5
2018-Aug-11 19:07N 41°17' W 072°06'212.4
2018-Aug-11 18:58N 41°15' W 072°07'7 4.9
2018-Aug-11 17:30N 41°10' W 072°13'5 8.8
2018-Aug-11 16:58N 41°14' W 072°10'4 2.0
2018-Aug-11 14:58N 41°16' W 072°06'511.2
2018-Aug-11 14:29N 41°12' W 072°11'3 1.9
2018-Aug-11 13:08N 41°11' W 072°14'213.1
2018-Aug-11 13:00N 41°12' W 072°13'8 0.8
2018-Aug-11 02:59N 41°18' W 072°05'611.8
2018-Aug-11 02:29N 41°13' W 072°10'5 5.3
2018-Aug-11 01:34N 41°09' W 072°13'1 9.5
2018-Aug-11 01:25N 41°11' W 072°14'10 4.9
2018-Aug-10 23:25N 41°18' W 072°05'511.3
2018-Aug-10 23:00N 41°14' W 072°08'510.8
2018-Aug-10 22:30N 41°10' W 072°13'1 1.7
2018-Aug-10 21:45N 41°09' W 072°14'1 3.9
2018-Aug-10 21:29N 41°10' W 072°13'510.0
2018-Aug-10 21:00N 41°14' W 072°10'4 2.2
2018-Aug-10 19:07N 41°17' W 072°06'112.3
2018-Aug-10 19:00N 41°15' W 072°07'713.4
2018-Aug-10 18:29N 41°10' W 072°13'0 0.3
2018-Aug-10 17:27N 41°11' W 072°13'8 3.3
2018-Aug-10 15:02N 41°16' W 072°06'212.1
2018-Aug-10 14:54N 41°15' W 072°07'512.3
2018-Aug-10 14:30N 41°12' W 072°12'3 2.6
2018-Aug-10 13:21N 41°09' W 072°14'410.0
2018-Aug-10 12:58N 41°13' W 072°12'7 0.6
2018-Aug-10 01:04N 41°17' W 072°06'311.7
2018-Aug-10 00:47N 41°15' W 072°09'310.6
2018-Aug-10 00:30N 41°13' W 072°11'3 2.5
2018-Aug-09 23:14N 41°10' W 072°13'2 9.9
2018-Aug-09 23:00N 41°12' W 072°12'7 3.4
2018-Aug-09 21:00N 41°17' W 072°06'612.0
2018-Aug-09 20:30N 41°12' W 072°11'3 3.0
2018-Aug-09 19:25N 41°09' W 072°13'4 9.6
2018-Aug-09 18:58N 41°13' W 072°11'5 2.7
2018-Aug-09 17:03N 41°17' W 072°05'112.3
2018-Aug-09 16:57N 41°15' W 072°06'7 4.7
2018-Aug-09 15:26N 41°11' W 072°13'4 1.6
2018-Aug-09 12:53N 41°14' W 072°10'4 0.4
2018-Aug-09 01:11N 41°11' W 072°14'4 1.8
2018-Aug-08 22:43N 41°14' W 072°10'210.2
2018-Aug-08 22:30N 41°12' W 072°12'2 1.8
2018-Aug-08 21:09N 41°11' W 072°14'6 0.9
2018-Aug-08 14:47N 41°14' W 072°08'1 0.1
2018-Aug-08 00:48N 41°15' W 072°08'412.7
2018-Aug-08 00:29N 41°12' W 072°12'3 2.3
2018-Aug-07 23:17N 41°10' W 072°13'510.6
2018-Aug-07 22:51N 41°14' W 072°11'1 0.4
2018-Aug-07 20:43N 41°14' W 072°10'211.3
2018-Aug-07 20:30N 41°12' W 072°12'2 1.5
2018-Aug-07 19:13N 41°11' W 072°14'311.5
2018-Aug-07 18:57N 41°13' W 072°11'5 2.8
2018-Aug-07 17:00N 41°17' W 072°06'612.7
2018-Aug-07 16:30N 41°12' W 072°11'3 2.7
2018-Aug-07 15:23N 41°10' W 072°13'4 9.4
2018-Aug-07 14:57N 41°13' W 072°11'4 0.3
2018-Aug-07 01:20N 41°10' W 072°13'9 1.4
2018-Aug-06 19:12N 41°17' W 072°06'211.3
2018-Aug-06 19:00N 41°15' W 072°08'7 4.1
2018-Aug-06 17:24N 41°10' W 072°13'411.0
2018-Aug-06 17:01N 41°13' W 072°11'5 2.3
2018-Aug-06 14:58N 41°16' W 072°06'612.9
2018-Aug-06 14:30N 41°12' W 072°12'2 1.9
2018-Aug-06 13:18N 41°10' W 072°13'4 9.9
2018-Aug-06 12:55N 41°13' W 072°10'1 0.0
2018-Aug-05 22:45N 41°14' W 072°10'4 1.1
2018-Aug-05 19:12N 41°17' W 072°06'211.0
2018-Aug-05 19:00N 41°15' W 072°08'2 0.9
2018-Aug-05 16:58N 41°14' W 072°10'1 0.3
2018-Aug-05 14:42N 41°14' W 072°09'  

Dump ship's entire track history